Time;durP1;ratioP1;P1;durP2;ratioP2;P2;SDS_P1;SDS_P2;PMS_P1;PMS_P2;Temp;Humidity;BMP_temperature;BMP_pressure;BME280_temperature;BME280_humidity;BME280_pressure;Samples;Min_cycle;Max_cycle;Signal;HPM_P1;HPM_P2
2022/04/01 00:02:24;;;;;;;2.87;2.67;;;;;;;18.43;46.22;95265.47;4896193;29;20203;-77
2022/04/01 00:04:50;;;;;;;3.13;2.83;;;;;;;17.58;46.33;95115.84;4895111;29;20441;-76
2022/04/01 00:07:17;;;;;;;3.30;3.00;;;;;;;18.39;46.22;95250.19;4878367;29;20290;-77
2022/04/01 00:09:44;;;;;;;2.67;2.47;;;;;;;17.63;46.62;95135.38;4876307;29;20254;-77
2022/04/01 00:12:10;;;;;;;2.90;2.70;;;;;;;18.01;46.34;95186.41;4877672;29;20262;-88
2022/04/01 00:14:38;;;;;;;2.50;2.30;;;;;;;18.04;45.88;95183.88;4904869;29;20310;-88
2022/04/01 00:17:04;;;;;;;3.37;2.70;;;;;;;18.32;46.27;95236.56;4879934;29;20285;-88
2022/04/01 00:19:31;;;;;;;2.93;2.63;;;;;;;18.49;46.24;95259.56;4896359;29;20258;-87
2022/04/01 00:21:58;;;;;;;2.77;2.57;;;;;;;18.06;46.32;95192.38;4879479;29;20230;-85
2022/04/01 00:24:28;;;;;;;2.90;2.70;;;;;;;16.78;46.13;94975.69;4917487;23;20256;-92
2022/04/01 00:26:55;;;;;;;2.73;2.53;;;;;;;15.25;46.30;94716.03;4904604;29;20296;-92
2022/04/01 00:29:22;;;;;;;2.80;2.60;;;;;;;17.93;45.81;95158.41;4902291;29;20886;-91
2022/04/01 00:31:58;;;;;;;2.70;2.50;;;;;;;16.95;46.36;95022.31;4900248;29;20218;-90
2022/04/01 00:34:29;;;;;;;2.70;2.50;;;;;;;16.36;45.89;94889.16;4884639;29;20559;-83
2022/04/01 00:36:56;;;;;;;4.37;2.70;;;;;;;18.41;46.21;95249.34;4878064;29;20246;-83
2022/04/01 00:39:23;;;;;;;2.63;2.43;;;;;;;18.48;45.67;95250.25;4863091;29;20211;-83
2022/04/01 00:41:50;;;;;;;2.63;2.43;;;;;;;18.40;46.14;95236.63;4862699;29;20230;-83
2022/04/01 00:44:21;;;;;;;2.90;2.70;;;;;;;18.37;45.86;95226.41;4862415;29;20965;-83
2022/04/01 00:46:56;;;;;;;2.83;2.60;;;;;;;18.38;45.78;95236.63;4862830;29;20313;-83
2022/04/01 00:49:24;;;;;;;2.70;2.50;;;;;;;18.48;45.81;95242.63;4862564;29;20201;-83
2022/04/01 00:51:51;;;;;;;2.80;2.60;;;;;;;18.48;45.93;95248.56;4861878;29;20722;-83
2022/04/01 00:54:18;;;;;;;2.53;2.33;;;;;;;18.58;45.71;95260.47;4862617;29;20774;-83
2022/04/01 00:56:44;;;;;;;2.60;2.40;;;;;;;18.45;45.87;95240.06;4870864;29;20301;-83
2022/04/01 00:59:12;;;;;;;3.07;2.87;;;;;;;18.43;45.62;95229.88;4858925;29;20733;-83
2022/04/01 01:01:45;;;;;;;2.80;2.60;;;;;;;17.96;45.83;95144.88;4845786;29;20238;-84
2022/04/01 01:04:13;;;;;;;3.00;2.70;;;;;;;18.44;45.88;95220.56;4848070;29;20293;-83
2022/04/01 01:06:41;;;;;;;3.00;2.80;;;;;;;18.43;45.92;95221.38;4861174;29;20206;-83
2022/04/01 01:09:08;;;;;;;2.60;2.40;;;;;;;18.49;45.71;95229.91;4862073;29;20233;-83
2022/04/01 01:11:37;;;;;;;2.53;2.33;;;;;;;18.38;45.62;95210.38;4861508;29;20230;-85
2022/04/01 01:14:05;;;;;;;2.53;2.33;;;;;;;18.31;45.63;95199.28;4863064;29;20921;-83
2022/04/01 01:16:32;;;;;;;2.63;2.43;;;;;;;18.22;45.82;95181.44;4869902;29;20225;-90
2022/04/01 01:19:17;;;;;;;2.77;2.57;;;;;;;18.62;45.80;95253.72;4890985;29;20194;-89
2022/04/01 01:21:46;;;;;;;2.67;2.47;;;;;;;18.10;45.88;95183.91;4869390;29;20202;-89
2022/04/01 01:24:16;;;;;;;2.70;2.50;;;;;;;18.52;46.16;95234.16;4885188;29;20234;-89
2022/04/01 01:26:47;;;;;;;2.63;2.43;;;;;;;16.44;45.65;94902.78;4885362;29;20221;-90
2022/04/01 01:29:18;;;;;;;2.87;2.60;;;;;;;17.73;45.85;95103.22;4880329;29;20195;-90
2022/04/01 01:31:48;;;;;;;2.47;2.27;;;;;;;18.04;45.89;95173.72;4862681;29;20310;-88
2022/04/01 01:34:18;;;;;;;2.50;2.30;;;;;;;16.33;45.80;94846.91;4876040;29;20329;-89
2022/04/01 01:36:45;;;;;;;2.60;2.40;;;;;;;18.55;45.40;95259.59;4891379;29;20211;-89
2022/04/01 01:39:13;;;;;;;2.80;2.60;;;;;;;17.54;45.58;95061.66;4864384;29;20615;-84
2022/04/01 01:41:43;;;;;;;2.63;2.43;;;;;;;18.35;45.72;95187.44;4861962;29;20214;-84
2022/04/01 01:44:10;;;;;;;2.80;2.60;;;;;;;18.25;45.66;95171.28;4862057;29;20277;-84
2022/04/01 01:46:37;;;;;;;2.47;2.27;;;;;;;18.39;45.77;95186.63;4861516;29;20203;-84
2022/04/01 01:49:04;;;;;;;2.60;2.40;;;;;;;18.42;45.91;95195.13;4858035;29;20290;-84
2022/04/01 01:57:02;;;;;;;2.77;2.57;;;;;;;18.43;45.59;95189.19;4865911;29;20293;-83
2022/04/01 01:59:28;;;;;;;2.70;2.50;;;;;;;18.39;45.56;95186.63;4858848;29;20752;-84
2022/04/01 02:01:55;;;;;;;2.67;2.47;;;;;;;18.43;45.70;95184.09;4850882;29;20261;-83
2022/04/01 02:04:24;;;;;;;2.40;2.20;;;;;;;18.30;45.85;95161.13;4861493;29;20374;-84
2022/04/01 02:06:51;;;;;;;2.13;2.03;;;;;;;18.36;45.96;95176.41;4876465;29;20301;-84
2022/04/01 02:09:18;;;;;;;2.73;2.53;;;;;;;18.43;45.67;95185.78;4861060;29;20285;-84
2022/04/01 02:11:44;;;;;;;2.73;2.53;;;;;;;18.30;45.88;95166.22;4865094;29;20245;-90
2022/04/01 02:14:11;;;;;;;2.53;2.33;;;;;;;18.60;46.08;95210.47;4870596;29;20233;-91
2022/04/01 02:16:39;;;;;;;2.40;2.30;;;;;;;16.90;45.70;94950.41;4881911;29;20193;-89
2022/04/01 02:19:09;;;;;;;2.43;2.23;;;;;;;16.95;45.72;94961.44;4893410;29;20198;-90
2022/04/01 02:21:36;;;;;;;2.50;2.30;;;;;;;17.99;45.58;95138.13;4882649;29;20206;-90
2022/04/01 02:24:06;;;;;;;2.63;2.43;;;;;;;16.41;45.92;94852.88;4868166;29;20218;-91
2022/04/01 02:26:34;;;;;;;2.60;2.20;;;;;;;16.12;45.42;94802.84;4887056;29;20207;-91
2022/04/01 02:29:05;;;;;;;2.63;2.43;;;;;;;16.94;45.54;94943.69;4870672;29;20287;-90
2022/04/01 02:31:32;;;;;;;2.90;2.70;;;;;;;16.42;45.91;94879.06;4881390;29;20207;-90
2022/04/01 02:33:59;;;;;;;2.73;2.53;;;;;;;16.52;46.18;94885.91;4866323;29;20230;-88
2022/04/01 02:36:26;;;;;;;2.60;2.40;;;;;;;18.47;46.10;95218.88;4883815;29;20218;-91
2022/04/01 02:38:53;;;;;;;2.43;2.23;;;;;;;17.95;45.82;95149.09;4881927;29;20223;-92
2022/04/01 02:41:20;;;;;;;2.40;2.20;;;;;;;16.07;45.96;94825.59;4886915;29;20217;-91
2022/04/01 02:43:48;;;;;;;2.40;2.20;;;;;;;16.10;45.83;94823.09;4884309;29;20216;-88
2022/04/01 02:46:17;;;;;;;2.43;2.30;;;;;;;16.79;45.81;94941.91;4883990;29;20247;-92
2022/04/01 02:48:45;;;;;;;2.40;2.20;;;;;;;16.59;45.81;94907.09;4875518;29;20230;-89
2022/04/01 02:51:13;;;;;;;2.60;2.40;;;;;;;16.67;45.77;94896.16;4880878;29;20221;-89
2022/04/01 02:53:40;;;;;;;2.50;2.30;;;;;;;16.96;45.81;94952.16;4880454;29;20225;-90
2022/04/01 02:56:07;;;;;;;2.50;2.30;;;;;;;16.29;46.04;94851.94;4884460;29;20218;-89
2022/04/01 02:58:34;;;;;;;2.63;2.43;;;;;;;17.19;45.88;94989.50;4871787;29;20226;-83
2022/04/01 03:01:01;;;;;;;2.60;2.40;;;;;;;17.91;45.57;95094.03;4875613;29;20297;-83
2022/04/01 03:03:27;;;;;;;2.60;2.40;;;;;;;18.39;45.73;95181.56;4893004;29;20867;-84
2022/04/01 03:05:54;;;;;;;2.60;2.40;;;;;;;18.27;45.69;95159.44;4845240;29;20246;-83
2022/04/01 03:08:23;;;;;;;2.27;2.07;;;;;;;18.58;45.52;95208.75;4874114;29;20703;-83
2022/04/01 03:10:50;;;;;;;2.57;2.37;;;;;;;17.42;45.49;95013.34;4843599;29;20269;-84
2022/04/01 03:13:16;;;;;;;2.07;1.97;;;;;;;18.47;45.45;95179.91;4857697;29;20337;-83
2022/04/01 03:15:43;;;;;;;2.67;2.47;;;;;;;18.40;45.53;95167.97;4859916;29;20207;-83
2022/04/01 03:18:10;;;;;;;2.37;2.17;;;;;;;18.26;45.34;95149.28;4841155;29;20261;-83
2022/04/01 03:20:37;;;;;;;2.30;2.10;;;;;;;18.42;45.31;95179.88;4882714;29;20226;-84
2022/04/01 03:23:04;;;;;;;2.53;2.33;;;;;;;18.68;45.47;95220.69;4842045;29;20614;-83
2022/04/01 03:25:33;;;;;;;2.57;2.37;;;;;;;18.63;45.58;95210.47;4878340;29;20272;-84
2022/04/01 03:28:01;;;;;;;2.60;2.40;;;;;;;18.49;45.66;95186.69;4857400;29;20300;-83
2022/04/01 03:30:28;;;;;;;2.40;2.30;;;;;;;18.61;45.59;95201.13;4860260;29;20289;-83
2022/04/01 03:32:55;;;;;;;2.43;2.23;;;;;;;18.38;45.60;95173.06;4876592;29;20312;-82
2022/04/01 03:35:21;;;;;;;2.50;2.30;;;;;;;18.55;45.71;95199.41;4879110;29;20246;-85
2022/04/01 03:37:51;;;;;;;2.70;2.50;;;;;;;18.29;45.37;95154.38;4862271;29;20632;-82
2022/04/01 03:40:17;;;;;;;2.47;2.27;;;;;;;18.56;45.62;95197.75;4890451;29;20206;-83
2022/04/01 03:42:45;;;;;;;2.23;2.13;;;;;;;18.54;45.68;95191.78;4863150;29;20290;-84
2022/04/01 03:45:12;;;;;;;2.20;2.10;;;;;;;18.56;45.69;95198.56;4864501;29;20325;-83
2022/04/01 03:47:46;;;;;;;2.50;2.30;;;;;;;18.47;45.47;95179.91;4864301;29;20206;-83
2022/04/01 03:50:12;;;;;;;2.53;2.33;;;;;;;18.71;45.66;95236.78;4849738;29;20681;-82
2022/04/01 03:52:39;;;;;;;2.37;2.17;;;;;;;18.70;45.61;95216.44;4879628;29;20222;-83
2022/04/01 03:55:07;;;;;;;2.33;2.20;;;;;;;18.64;45.63;95203.69;4896197;29;20321;-83
2022/04/01 03:57:38;;;;;;;2.60;2.40;;;;;;;18.34;45.42;95157.75;4862048;29;20202;-83
2022/04/01 04:00:07;;;;;;;2.20;2.10;;;;;;;18.47;45.37;95184.97;4863883;29;20297;-86
2022/04/01 04:02:34;;;;;;;2.30;2.20;;;;;;;18.55;45.46;95196.00;4848905;29;20214;-84
2022/04/01 04:05:02;;;;;;;2.30;2.10;;;;;;;18.66;45.51;95217.25;4863812;29;20669;-83
2022/04/01 04:07:30;;;;;;;2.20;2.10;;;;;;;18.65;45.63;95218.13;4877778;29;20241;-83
2022/04/01 04:09:57;;;;;;;2.47;2.27;;;;;;;18.37;45.43;95173.91;4863603;29;20253;-87
2022/04/01 04:12:30;;;;;;;2.20;2.07;;;;;;;18.72;45.52;95224.91;4861129;29;20679;-83
2022/04/01 04:14:57;;;;;;;2.17;2.07;;;;;;;18.05;45.51;95111.88;4852663;29;20253;-83
2022/04/01 04:17:36;;;;;;;2.40;2.20;;;;;;;18.71;45.62;95226.59;4863185;29;20238;-83
2022/04/01 04:20:18;;;;;;;2.57;2.37;;;;;;;18.72;45.54;95233.41;4864307;29;20202;-84
2022/04/01 04:23:16;;;;;;;2.83;2.30;;;;;;;18.72;45.43;95233.41;4894557;29;20209;-84
2022/04/01 04:25:53;;;;;;;2.23;2.13;;;;;;;18.02;45.55;95122.88;4864244;29;20332;-84
2022/04/01 04:28:23;;;;;;;2.10;2.00;;;;;;;18.49;45.44;95203.63;4863629;29;20769;-83
2022/04/01 04:30:52;;;;;;;2.30;2.20;;;;;;;18.34;45.82;95178.09;4862729;29;20241;-83
2022/04/01 04:33:18;;;;;;;2.70;2.50;;;;;;;18.41;45.67;95195.97;4876198;29;20222;-83
2022/04/01 04:35:45;;;;;;;2.40;2.20;;;;;;;18.57;45.56;95215.53;4847952;29;20297;-83
2022/04/01 04:38:11;;;;;;;2.57;2.37;;;;;;;18.45;45.65;95194.28;4864168;29;20226;-84
2022/04/01 04:40:41;;;;;;;2.47;2.27;;;;;;;18.72;45.50;95247.81;4863443;29;20208;-83
2022/04/01 04:43:08;;;;;;;2.20;2.10;;;;;;;18.46;45.39;95201.06;4863062;29;20740;-84
2022/04/01 04:45:34;;;;;;;2.30;2.10;;;;;;;18.47;45.40;95203.63;4862899;29;20281;-83
2022/04/01 04:48:01;;;;;;;2.00;1.90;;;;;;;18.56;45.63;95215.53;4862938;29;20289;-83
2022/04/01 04:50:28;;;;;;;2.30;2.20;;;;;;;18.60;45.73;95230.81;4862597;29;20289;-83
2022/04/01 04:52:55;;;;;;;2.37;2.17;;;;;;;18.38;45.64;95187.50;4862906;29;20333;-83
2022/04/01 04:55:23;;;;;;;2.20;2.00;;;;;;;18.56;45.44;95216.38;4862480;29;20337;-83
2022/04/01 04:57:51;;;;;;;2.13;2.03;;;;;;;18.47;45.46;95200.25;4863095;29;20301;-83
2022/04/01 05:00:21;;;;;;;2.43;2.23;;;;;;;18.57;45.63;95233.34;4862925;29;20367;-83
2022/04/01 05:03:07;;;;;;;2.17;2.03;;;;;;;18.64;45.25;95242.69;4863652;29;20214;-83
2022/04/01 05:05:54;;;;;;;2.30;2.10;;;;;;;18.42;45.30;95209.53;4877952;29;20607;-84
2022/04/01 05:08:38;;;;;;;2.00;1.90;;;;;;;18.72;45.53;95261.41;4862751;29;20245;-83
2022/04/01 05:11:07;;;;;;;2.07;1.93;;;;;;;18.56;45.59;95246.06;4875925;29;20743;-85
2022/04/01 05:14:15;;;;;;;2.00;1.90;;;;;;;18.72;45.62;95268.16;4877584;29;20309;-84
2022/04/01 05:16:55;;;;;;;2.13;2.03;;;;;;;18.72;45.55;95281.75;4874352;29;20306;-83
2022/04/01 05:19:28;;;;;;;2.40;2.20;;;;;;;18.45;45.58;95227.34;4859730;29;20301;-85
2022/04/01 05:22:15;;;;;;;2.37;2.20;;;;;;;18.72;45.46;95279.22;4849407;29;20728;-87
2022/04/01 05:24:50;;;;;;;2.23;2.03;;;;;;;18.36;45.81;95217.09;4866111;29;20226;-87
2022/04/01 05:27:24;;;;;;;2.23;2.07;;;;;;;18.73;45.31;95277.50;4880048;29;20301;-83
2022/04/01 05:30:13;;;;;;;2.30;2.20;;;;;;;18.50;45.65;95244.31;4878364;29;20209;-82
2022/04/01 05:32:41;;;;;;;2.30;2.10;;;;;;;18.46;45.52;95242.59;4878561;29;20226;-81
2022/04/01 05:35:08;;;;;;;2.20;2.10;;;;;;;18.60;45.64;95268.97;4862289;29;20313;-82
2022/04/01 05:37:35;;;;;;;2.13;1.93;;;;;;;18.54;45.68;95263.00;4877972;29;20206;-84
2022/04/01 05:40:05;;;;;;;2.23;2.03;;;;;;;18.36;45.40;95229.81;4877747;29;20202;-83
2022/04/01 05:42:32;;;;;;;2.33;2.13;;;;;;;18.69;45.37;95289.38;4878612;29;20242;-84
2022/04/01 05:44:59;;;;;;;2.20;2.10;;;;;;;18.60;45.65;95275.75;4877347;29;20285;-83
2022/04/01 05:47:28;;;;;;;1.70;1.60;;;;;;;18.59;45.33;95271.50;4876656;29;20229;-83
2022/04/01 05:49:57;;;;;;;2.10;2.00;;;;;;;18.68;45.64;95291.91;4877051;29;20334;-84
2022/04/01 05:52:24;;;;;;;1.90;1.80;;;;;;;18.58;45.31;95283.38;4862355;29;20288;-85
2022/04/01 05:54:50;;;;;;;1.90;1.80;;;;;;;18.59;45.76;95285.06;4865280;29;20238;-83
2022/04/01 05:57:18;;;;;;;1.93;1.83;;;;;;;18.66;45.50;95296.97;4862679;29;20242;-84
2022/04/01 05:59:45;;;;;;;1.90;1.80;;;;;;;18.47;45.47;95267.19;4863152;29;20643;-84
2022/04/01 06:02:33;;;;;;;2.03;1.87;;;;;;;18.74;45.50;95315.66;4843514;29;20203;-83
2022/04/01 06:05:09;;;;;;;2.07;1.97;;;;;;;18.75;45.63;95311.44;4867874;29;20229;-83
2022/04/01 06:07:44;;;;;;;2.00;1.90;;;;;;;18.66;45.32;95302.06;4886083;29;20289;-83
2022/04/01 06:10:26;;;;;;;2.13;2.03;;;;;;;18.48;45.50;95278.22;4877744;29;20248;-85
2022/04/01 06:13:14;;;;;;;2.23;2.00;;;;;;;18.74;45.45;95314.81;4877761;29;20212;-84
2022/04/01 06:15:56;;;;;;;2.30;2.10;;;;;;;18.74;45.24;95318.19;4894092;29;20297;-84
2022/04/01 06:19:06;;;;;;;1.97;1.87;;;;;;;18.47;45.26;95279.06;4862495;29;20191;-83
2022/04/01 06:21:42;;;;;;;3.27;2.00;;;;;;;18.52;45.14;95292.66;4846491;29;20308;-84
2022/04/01 06:24:10;;;;;;;2.67;2.30;;;;;;;18.07;45.14;95210.19;4878371;23;20264;-84
2022/04/01 06:26:46;;;;;;;2.40;2.17;;;;;;;18.35;45.05;95263.72;4880654;29;20292;-83
2022/04/01 06:29:22;;;;;;;2.10;1.93;;;;;;;18.74;45.21;95330.91;4912886;29;20291;-84
2022/04/01 06:31:53;;;;;;;2.30;2.10;;;;;;;18.46;45.17;95280.75;4897408;29;20748;-84
2022/04/01 06:34:21;;;;;;;2.40;2.20;;;;;;;18.12;45.14;95238.16;4896865;29;20233;-84
2022/04/01 06:36:53;;;;;;;3.57;2.13;;;;;;;18.58;45.23;95315.56;4881663;29;20300;-84
2022/04/01 06:39:43;;;;;;;5.23;2.00;;;;;;;17.73;45.46;95172.66;4897244;29;20223;-83
2022/04/01 06:42:11;;;;;;;2.40;2.20;;;;;;;18.51;45.22;95302.00;4872356;29;20616;-84
2022/04/01 06:44:38;;;;;;;2.10;2.00;;;;;;;18.40;44.93;95284.94;4881135;29;20316;-84
2022/04/01 06:47:04;;;;;;;2.50;2.30;;;;;;;18.29;45.24;95267.06;4896142;29;20210;-84
2022/04/01 06:49:31;;;;;;;4.40;2.37;;;;;;;18.09;45.31;95231.34;4896133;29;20269;-84
2022/04/01 06:52:01;;;;;;;2.23;2.10;;;;;;;18.37;45.12;95283.25;4895905;29;20221;-84
2022/04/01 06:54:28;;;;;;;2.20;1.90;;;;;;;18.23;45.51;95261.94;4881867;29;20233;-83
2022/04/01 06:56:55;;;;;;;2.87;2.20;;;;;;;18.23;45.10;95272.97;4881247;29;20261;-85
2022/04/01 06:59:21;;;;;;;3.30;2.60;;;;;;;18.10;44.61;95234.75;4881159;29;20751;-84
2022/04/01 07:01:48;;;;;;;2.30;2.10;;;;;;;18.49;44.91;95311.28;4881556;29;20655;-84
2022/04/01 07:04:15;;;;;;;2.70;2.50;;;;;;;18.74;43.94;95347.91;4911281;29;20225;-84
2022/04/01 07:06:41;;;;;;;3.17;2.80;;;;;;;18.72;43.54;95340.25;4882516;29;20292;-84
2022/04/01 07:09:08;;;;;;;3.50;2.17;;;;;;;16.97;43.89;95048.56;4899842;29;20688;-84
2022/04/01 07:11:34;;;;;;;2.63;2.43;;;;;;;18.54;43.94;95318.94;4888219;29;20240;-83
2022/04/01 07:14:02;;;;;;;3.10;2.27;;;;;;;18.54;44.23;95319.81;4895876;29;20231;-84
2022/04/01 07:16:28;;;;;;;2.40;2.20;;;;;;;17.86;43.45;95214.25;4916035;29;20213;-84
2022/04/01 07:18:56;;;;;;;2.53;2.20;;;;;;;18.46;44.43;95307.88;4921018;29;20619;-83
2022/04/01 07:21:23;;;;;;;2.40;2.20;;;;;;;18.18;44.24;95266.97;4883456;29;20233;-83
2022/04/01 07:23:49;;;;;;;2.67;2.17;;;;;;;18.20;44.50;95278.03;4883621;29;20706;-84
2022/04/01 07:26:16;;;;;;;4.80;2.17;;;;;;;18.31;44.79;95289.94;4883841;29;20262;-81
2022/04/01 07:28:43;;;;;;;2.77;2.23;;;;;;;18.34;44.49;95297.59;4883083;29;20649;-83
2022/04/01 07:34:22;;;;;;;2.40;2.20;;;;;;;18.47;45.28;95315.50;4915660;29;20311;-84
2022/04/01 07:36:49;;;;;;;2.20;2.00;;;;;;;17.34;44.96;95129.19;4897694;29;20261;-85
2022/04/01 07:39:16;;;;;;;10.20;2.23;;;;;;;18.36;45.49;95299.31;4898831;29;20257;-85
2022/04/01 07:41:42;;;;;;;2.10;1.90;;;;;;;18.16;44.23;95280.53;4898197;29;20277;-84
2022/04/01 07:44:09;;;;;;;2.57;2.07;;;;;;;18.27;43.76;95297.53;4913883;29;20226;-84
2022/04/01 07:46:36;;;;;;;5.93;2.10;;;;;;;18.04;44.36;95267.75;4901651;29;20261;-84
2022/04/01 07:49:02;;;;;;;4.90;2.00;;;;;;;18.30;44.63;95314.53;4915985;29;20213;-83
2022/04/01 07:51:29;;;;;;;2.10;1.90;;;;;;;18.07;44.87;95276.25;4883980;29;20642;-85
2022/04/01 07:53:56;;;;;;;6.13;2.20;;;;;;;18.31;44.87;95318.78;4906116;29;20319;-84
2022/04/01 07:56:30;;;;;;;1.83;1.73;;;;;;;18.27;45.06;95317.88;4896066;29;20724;-84
2022/04/01 07:59:00;;;;;;;1.93;1.77;;;;;;;17.39;45.03;95160.53;4902076;29;20208;-84
2022/04/01 08:01:29;;;;;;;2.27;1.90;;;;;;;18.41;45.26;95338.34;4901038;29;20228;-82
2022/04/01 08:03:56;;;;;;;2.60;1.87;;;;;;;18.08;45.36;95285.56;4915678;29;20224;-84
2022/04/01 08:06:22;;;;;;;2.53;1.80;;;;;;;17.84;45.25;95249.81;4884538;29;20256;-84
2022/04/01 08:08:49;;;;;;;1.80;1.70;;;;;;;18.36;45.58;95356.94;4885162;29;20245;-82
2022/04/01 08:11:15;;;;;;;3.07;1.73;;;;;;;18.28;45.71;95321.28;4915399;29;20288;-84
2022/04/01 08:13:42;;;;;;;2.10;1.70;;;;;;;18.08;45.22;95298.28;4915594;29;20769;-83
2022/04/01 08:16:10;;;;;;;1.90;1.73;;;;;;;18.19;45.89;95313.59;4916068;29;20244;-83
2022/04/01 08:18:37;;;;;;;1.87;1.60;;;;;;;18.31;45.48;95328.94;4902771;29;20209;-82
2022/04/01 08:21:03;;;;;;;1.70;1.60;;;;;;;18.07;45.33;95296.56;4887941;29;20245;-84
2022/04/01 08:23:35;;;;;;;1.53;1.40;;;;;;;18.22;45.54;95339.03;4903874;29;20209;-81
2022/04/01 08:26:02;;;;;;;1.83;1.60;;;;;;;18.24;45.54;95330.56;4903491;29;20689;-83
2022/04/01 08:28:28;;;;;;;2.13;1.60;;;;;;;18.27;45.73;95333.13;4918987;29;20735;-83
2022/04/01 08:30:55;;;;;;;1.70;1.60;;;;;;;18.16;45.52;95314.44;4887908;29;20201;-84
2022/04/01 08:33:24;;;;;;;3.63;1.53;;;;;;;17.98;46.11;95293.97;4919643;29;20272;-84
2022/04/01 08:35:51;;;;;;;1.60;1.50;;;;;;;18.04;45.84;95306.72;4887558;29;20670;-83
2022/04/01 08:38:17;;;;;;;1.87;1.60;;;;;;;18.26;45.71;95340.75;4903449;29;20244;-84
2022/04/01 08:40:44;;;;;;;1.50;1.40;;;;;;;18.39;45.96;95375.66;4903536;29;20292;-83
2022/04/01 08:43:11;;;;;;;1.70;1.60;;;;;;;18.11;45.58;95322.84;4918726;29;20228;-83
2022/04/01 08:45:38;;;;;;;1.90;1.53;;;;;;;18.32;45.95;95360.31;4903803;29;20225;-82
2022/04/01 08:48:06;;;;;;;1.70;1.60;;;;;;;18.37;46.04;95366.25;4903975;29;20212;-84
2022/04/01 08:50:33;;;;;;;1.77;1.47;;;;;;;18.30;45.51;95357.75;4902684;29;20217;-84
2022/04/01 08:53:00;;;;;;;1.67;1.57;;;;;;;18.17;45.82;95343.22;4902409;29;20292;-84
2022/04/01 08:55:27;;;;;;;1.70;1.60;;;;;;;18.07;45.82;95324.53;4902850;29;20225;-84
2022/04/01 08:57:53;;;;;;;1.63;1.40;;;;;;;17.77;45.51;95272.63;4885681;29;20205;-83
2022/04/01 09:00:20;;;;;;;1.57;1.47;;;;;;;18.60;45.72;95428.34;4883539;29;20263;-82
2022/04/01 09:02:57;;;;;;;1.60;1.50;;;;;;;18.46;46.06;95395.19;4934571;29;20213;-83
2022/04/01 09:05:24;;;;;;;1.77;1.50;;;;;;;18.21;46.02;95365.31;4887388;29;20264;-84
2022/04/01 09:08:14;;;;;;;4.10;1.50;;;;;;;18.41;45.75;95389.22;4899294;29;20280;-83
2022/04/01 09:10:50;;;;;;;1.50;1.40;;;;;;;18.59;45.72;95424.94;4899373;29;20233;-83
2022/04/01 09:13:17;;;;;;;1.90;1.40;;;;;;;18.04;46.09;95331.28;4899100;29;20257;-84
2022/04/01 09:15:44;;;;;;;1.50;1.40;;;;;;;18.01;45.94;95343.94;4868654;29;20237;-84
2022/04/01 09:18:11;;;;;;;1.80;1.70;;;;;;;18.02;46.21;95350.72;4884167;29;20309;-84
2022/04/01 09:20:50;;;;;;;1.70;1.60;;;;;;;18.05;46.23;95355.84;4868557;29;20205;-83
2022/04/01 09:23:23;;;;;;;1.57;1.47;;;;;;;17.14;46.04;95196.69;4884393;29;20265;-82
2022/04/01 09:25:51;;;;;;;1.57;1.47;;;;;;;18.38;46.43;95416.31;4898836;29;20785;-84
2022/04/01 09:28:27;;;;;;;1.77;1.30;;;;;;;18.26;45.79;95395.84;4883425;29;20244;-83
2022/04/01 09:31:13;;;;;;;1.80;1.57;;;;;;;18.03;46.19;95350.75;4900826;29;20236;-83
2022/04/01 09:34:01;;;;;;;1.50;1.40;;;;;;;17.39;45.79;95238.38;4887155;29;20230;-84
2022/04/01 09:36:38;;;;;;;1.40;1.30;;;;;;;18.39;46.11;95410.38;4899286;29;20209;-84
2022/04/01 09:39:11;;;;;;;1.30;1.20;;;;;;;18.58;46.00;95442.75;4900634;29;20219;-84
2022/04/01 09:41:48;;;;;;;1.40;1.30;;;;;;;18.57;46.43;95439.38;4899173;29;20186;-85
2022/04/01 09:44:35;;;;;;;1.30;1.20;;;;;;;18.45;46.08;95421.47;4900158;29;20232;-84
2022/04/01 09:47:05;;;;;;;1.40;1.30;;;;;;;17.96;46.22;95340.50;4898887;29;20225;-81
2022/04/01 09:49:39;;;;;;;1.70;1.60;;;;;;;18.56;46.15;95435.09;4907061;29;20205;-83
2022/04/01 09:52:09;;;;;;;3.10;1.50;;;;;;;18.20;45.76;95372.06;4906405;29;20193;-83
2022/04/01 09:54:51;;;;;;;1.77;1.50;;;;;;;18.55;45.90;95441.03;4867739;29;20655;-83
2022/04/01 09:57:22;;;;;;;1.37;1.27;;;;;;;17.17;46.04;95206.03;4882435;29;20230;-83
2022/04/01 09:59:50;;;;;;;1.47;1.37;;;;;;;18.00;46.01;95349.88;4896712;29;20288;-85
2022/04/01 10:02:16;;;;;;;1.30;1.20;;;;;;;18.23;46.00;95389.03;4865085;29;20308;-83
2022/04/01 10:04:43;;;;;;;1.50;1.40;;;;;;;18.48;45.96;95430.81;4865222;29;20706;-84
2022/04/01 10:07:10;;;;;;;1.60;1.33;;;;;;;18.44;46.25;95439.25;4900482;29;20233;-83
2022/04/01 10:09:37;;;;;;;1.37;1.27;;;;;;;18.02;46.17;95361.75;4880620;29;20305;-83
2022/04/01 10:12:26;;;;;;;1.57;1.47;;;;;;;17.91;46.35;95344.69;4900087;29;20681;-85
2022/04/01 10:14:57;;;;;;;3.60;3.13;;;;;;;18.02;45.94;95379.53;4896416;29;20312;-84
2022/04/01 10:17:26;;;;;;;5.50;3.73;;;;;;;17.93;46.11;95350.66;4898504;29;20214;-83
2022/04/01 10:19:53;;;;;;;6.23;3.43;;;;;;;18.17;45.37;95397.47;4898929;29;20676;-83
2022/04/01 10:22:20;;;;;;;4.93;3.33;;;;;;;18.06;44.87;95378.72;4868165;29;20274;-83
2022/04/01 10:24:52;;;;;;;4.47;3.40;;;;;;;18.54;43.98;95451.19;4886153;29;20276;-84
2022/04/01 10:27:26;;;;;;;4.53;3.20;;;;;;;18.45;44.26;95444.34;4901750;29;20276;-84
2022/04/01 10:29:56;;;;;;;5.57;3.10;;;;;;;17.96;44.27;95379.50;4901191;29;20198;-84
2022/04/01 10:32:29;;;;;;;4.17;2.87;;;;;;;18.51;44.78;95462.22;4885776;29;20210;-83
2022/04/01 10:34:59;;;;;;;3.53;2.80;;;;;;;18.53;45.14;95462.22;4914558;29;20304;-83
2022/04/01 10:37:32;;;;;;;3.47;2.63;;;;;;;17.86;45.03;95352.28;4903736;29;20292;-86
2022/04/01 10:40:15;;;;;;;2.87;2.37;;;;;;;18.43;45.33;95442.63;4882802;29;20237;-81
2022/04/01 10:42:45;;;;;;;3.53;2.63;;;;;;;16.62;45.71;95140.34;4884978;29;20209;-84
2022/04/01 10:45:18;;;;;;;2.30;2.10;;;;;;;17.38;45.48;95267.16;4927785;29;20271;-84
2022/04/01 10:53:48;;;;;;;5.77;3.00;;;;;;;18.32;46.29;95426.41;4916769;29;20272;-85
2022/04/01 10:56:21;;;;;;;7.70;3.40;;;;;;;18.54;46.19;95456.28;4874851;29;20221;-85
2022/04/01 10:59:03;;;;;;;7.07;2.70;;;;;;;17.42;46.09;95277.34;4910865;29;20630;-86
2022/04/01 11:01:32;;;;;;;8.03;3.07;;;;;;;17.75;46.46;95327.63;4917439;29;20194;-85
2022/04/01 11:04:09;;;;;;;10.33;3.23;;;;;;;18.09;45.85;95390.63;4885828;29;20249;-84
2022/04/01 11:06:55;;;;;;;5.57;2.93;;;;;;;17.03;46.07;95221.13;4904837;29;20207;-84
2022/04/01 11:09:49;;;;;;;5.63;3.30;;;;;;;18.57;46.17;95472.44;4937986;29;20205;-84
2022/04/01 11:12:19;;;;;;;7.47;3.50;;;;;;;18.58;46.17;95471.59;4906754;29;20208;-85
2022/04/01 11:14:55;;;;;;;11.93;3.53;;;;;;;18.59;46.55;95477.53;4937923;29;20323;-85
2022/04/01 11:17:34;;;;;;;11.93;3.90;;;;;;;17.88;47.14;95344.66;4921996;29;20205;-85
2022/04/01 11:20:07;;;;;;;9.87;3.17;;;;;;;18.60;46.71;95467.38;4922528;29;20256;-84
2022/04/01 11:22:46;;;;;;;10.63;3.50;;;;;;;18.60;47.79;95475.00;4905564;29;20272;-84
2022/04/01 11:25:38;;;;;;;20.57;3.97;;;;;;;18.42;48.63;95434.16;4937247;29;20295;-85
2022/04/01 11:28:08;;;;;;;11.70;3.70;;;;;;;18.64;49.45;95475.84;4917301;29;20276;-85
2022/04/01 11:30:39;;;;;;;24.23;4.50;;;;;;;17.92;49.87;95354.88;4933431;29;20209;-84
2022/04/01 11:33:08;;;;;;;29.63;5.30;;;;;;;17.52;49.93;95293.53;4920690;29;20607;-85
2022/04/01 11:35:36;;;;;;;22.20;5.27;;;;;;;16.11;49.81;95040.09;4905664;29;20221;-85
2022/04/01 11:38:13;;;;;;;21.17;5.60;;;;;;;16.42;50.04;95125.75;4920759;29;20255;-85
2022/04/01 11:40:42;;;;;;;24.40;6.13;;;;;;;15.07;50.06;94858.31;4890900;29;20196;-84
2022/04/01 11:43:17;;;;;;;18.23;5.70;;;;;;;14.19;50.07;94698.84;4937742;29;20204;-85
2022/04/01 11:45:48;;;;;;;25.70;5.90;;;;;;;18.18;50.41;95380.53;4889282;29;20282;-85
2022/04/01 11:48:22;;;;;;;40.33;6.47;;;;;;;17.90;50.34;95343.84;4917467;29;20209;-84
2022/04/01 11:50:52;;;;;;;25.47;5.70;;;;;;;18.38;50.14;95419.69;4901622;29;20584;-84
2022/04/01 11:53:24;;;;;;;25.73;6.30;;;;;;;18.11;50.42;95360.97;4888391;29;20248;-83
2022/04/01 11:55:51;;;;;;;21.07;5.90;;;;;;;18.37;50.66;95407.84;4905846;29;20327;-84
2022/04/01 11:58:17;;;;;;;19.80;5.67;;;;;;;17.47;50.54;95260.47;4904141;29;20691;-84
2022/04/01 12:00:44;;;;;;;21.20;6.20;;;;;;;18.64;50.47;95445.34;4920615;29;20233;-83
2022/04/01 12:03:11;;;;;;;29.23;6.13;;;;;;;18.44;50.26;95413.81;4904557;29;20273;-83